sensor_id;sensor_type;location;lat;lon;timestamp;temperature;humidity
23597;DHT22;40226;50.874;4.394;2024-03-17T00:02:19;10.20;99.90
23597;DHT22;40226;50.874;4.394;2024-03-17T00:04:45;10.40;99.90
23597;DHT22;40226;50.874;4.394;2024-03-17T00:07:12;10.30;99.90
23597;DHT22;40226;50.874;4.394;2024-03-17T00:09:41;10.40;99.90
23597;DHT22;40226;50.874;4.394;2024-03-17T00:12:07;10.30;99.90
23597;DHT22;40226;50.874;4.394;2024-03-17T00:14:37;10.20;99.90
23597;DHT22;40226;50.874;4.394;2024-03-17T00:17:02;10.40;99.90
23597;DHT22;40226;50.874;4.394;2024-03-17T00:19:28;10.40;99.90
23597;DHT22;40226;50.874;4.394;2024-03-17T00:21:54;10.40;99.90
23597;DHT22;40226;50.874;4.394;2024-03-17T00:24:20;10.50;99.90
23597;DHT22;40226;50.874;4.394;2024-03-17T00:26:46;10.60;99.90
23597;DHT22;40226;50.874;4.394;2024-03-17T00:29:12;10.50;99.90
23597;DHT22;40226;50.874;4.394;2024-03-17T00:31:40;10.60;99.90
23597;DHT22;40226;50.874;4.394;2024-03-17T00:34:06;10.60;99.90
23597;DHT22;40226;50.874;4.394;2024-03-17T00:36:31;10.50;99.90
23597;DHT22;40226;50.874;4.394;2024-03-17T00:38:57;10.40;99.90
23597;DHT22;40226;50.874;4.394;2024-03-17T00:41:23;10.20;99.90
23597;DHT22;40226;50.874;4.394;2024-03-17T00:43:52;9.90;99.90
23597;DHT22;40226;50.874;4.394;2024-03-17T00:46:21;9.70;99.90
23597;DHT22;40226;50.874;4.394;2024-03-17T00:48:48;9.60;99.90
23597;DHT22;40226;50.874;4.394;2024-03-17T00:51:15;9.50;99.90
23597;DHT22;40226;50.874;4.394;2024-03-17T00:53:41;9.50;99.90
23597;DHT22;40226;50.874;4.394;2024-03-17T00:56:06;9.70;99.90
23597;DHT22;40226;50.874;4.394;2024-03-17T00:58:32;9.70;99.90
23597;DHT22;40226;50.874;4.394;2024-03-17T01:00:57;9.80;99.90
23597;DHT22;40226;50.874;4.394;2024-03-17T01:03:23;9.70;99.90
23597;DHT22;40226;50.874;4.394;2024-03-17T01:05:49;9.90;99.90
23597;DHT22;40226;50.874;4.394;2024-03-17T01:08:19;9.90;99.90
23597;DHT22;40226;50.874;4.394;2024-03-17T01:10:45;9.80;99.90
23597;DHT22;40226;50.874;4.394;2024-03-17T01:13:11;9.70;99.90
23597;DHT22;40226;50.874;4.394;2024-03-17T01:15:37;9.50;99.90
23597;DHT22;40226;50.874;4.394;2024-03-17T01:18:04;9.50;99.90
23597;DHT22;40226;50.874;4.394;2024-03-17T01:20:37;9.70;99.90
23597;DHT22;40226;50.874;4.394;2024-03-17T01:23:04;9.70;99.90
23597;DHT22;40226;50.874;4.394;2024-03-17T01:25:30;9.70;99.90
23597;DHT22;40226;50.874;4.394;2024-03-17T01:27:57;9.70;99.90
23597;DHT22;40226;50.874;4.394;2024-03-17T01:30:23;9.80;99.90
23597;DHT22;40226;50.874;4.394;2024-03-17T01:32:50;9.70;99.90
23597;DHT22;40226;50.874;4.394;2024-03-17T01:35:16;9.80;99.90
23597;DHT22;40226;50.874;4.394;2024-03-17T01:37:42;9.90;99.90
23597;DHT22;40226;50.874;4.394;2024-03-17T01:40:08;10.10;99.90
23597;DHT22;40226;50.874;4.394;2024-03-17T01:42:38;10.20;99.90
23597;DHT22;40226;50.874;4.394;2024-03-17T01:47:57;10.70;99.90
23597;DHT22;40226;50.874;4.394;2024-03-17T01:50:31;10.60;99.90
23597;DHT22;40226;50.874;4.394;2024-03-17T01:52:58;10.50;99.90
23597;DHT22;40226;50.874;4.394;2024-03-17T01:55:26;10.40;99.90
23597;DHT22;40226;50.874;4.394;2024-03-17T01:57:53;10.30;99.90
23597;DHT22;40226;50.874;4.394;2024-03-17T02:00:19;10.30;99.90
23597;DHT22;40226;50.874;4.394;2024-03-17T02:02:45;10.40;99.90
23597;DHT22;40226;50.874;4.394;2024-03-17T02:05:10;10.50;99.90
23597;DHT22;40226;50.874;4.394;2024-03-17T02:07:36;10.30;99.90
23597;DHT22;40226;50.874;4.394;2024-03-17T02:10:02;10.30;99.90
23597;DHT22;40226;50.874;4.394;2024-03-17T02:12:31;10.30;99.90
23597;DHT22;40226;50.874;4.394;2024-03-17T02:14:58;10.20;99.90
23597;DHT22;40226;50.874;4.394;2024-03-17T02:17:24;10.20;99.90
23597;DHT22;40226;50.874;4.394;2024-03-17T02:19:51;10.40;99.90
23597;DHT22;40226;50.874;4.394;2024-03-17T02:22:17;10.30;99.90
23597;DHT22;40226;50.874;4.394;2024-03-17T02:24:43;10.30;99.90
23597;DHT22;40226;50.874;4.394;2024-03-17T02:27:09;10.40;99.90
23597;DHT22;40226;50.874;4.394;2024-03-17T02:29:38;10.60;99.90
23597;DHT22;40226;50.874;4.394;2024-03-17T02:32:08;10.40;99.90
23597;DHT22;40226;50.874;4.394;2024-03-17T02:34:34;10.40;99.90
23597;DHT22;40226;50.874;4.394;2024-03-17T02:37:00;10.50;99.90
23597;DHT22;40226;50.874;4.394;2024-03-17T02:39:27;10.40;99.90
23597;DHT22;40226;50.874;4.394;2024-03-17T02:42:02;10.20;99.90
23597;DHT22;40226;50.874;4.394;2024-03-17T02:44:30;10.20;99.90
23597;DHT22;40226;50.874;4.394;2024-03-17T02:46:57;10.00;99.90
23597;DHT22;40226;50.874;4.394;2024-03-17T02:49:23;9.90;99.90
23597;DHT22;40226;50.874;4.394;2024-03-17T02:51:49;9.90;99.90
23597;DHT22;40226;50.874;4.394;2024-03-17T02:54:14;9.90;99.90
23597;DHT22;40226;50.874;4.394;2024-03-17T02:56:40;10.00;99.90
23597;DHT22;40226;50.874;4.394;2024-03-17T02:59:07;10.20;99.90
23597;DHT22;40226;50.874;4.394;2024-03-17T03:01:36;10.20;99.90
23597;DHT22;40226;50.874;4.394;2024-03-17T03:04:01;10.00;99.90
23597;DHT22;40226;50.874;4.394;2024-03-17T03:06:27;10.00;99.90
23597;DHT22;40226;50.874;4.394;2024-03-17T03:08:53;10.00;99.90
23597;DHT22;40226;50.874;4.394;2024-03-17T03:11:18;10.00;99.90
23597;DHT22;40226;50.874;4.394;2024-03-17T03:13:44;9.90;99.90
23597;DHT22;40226;50.874;4.394;2024-03-17T03:16:14;9.90;99.90
23597;DHT22;40226;50.874;4.394;2024-03-17T03:18:40;9.80;99.90
23597;DHT22;40226;50.874;4.394;2024-03-17T03:21:06;9.60;99.90
23597;DHT22;40226;50.874;4.394;2024-03-17T03:23:32;9.60;99.90
23597;DHT22;40226;50.874;4.394;2024-03-17T03:25:59;9.70;99.90
23597;DHT22;40226;50.874;4.394;2024-03-17T03:28:25;9.90;99.90
23597;DHT22;40226;50.874;4.394;2024-03-17T03:30:52;10.00;99.90
23597;DHT22;40226;50.874;4.394;2024-03-17T03:33:19;10.10;99.90
23597;DHT22;40226;50.874;4.394;2024-03-17T03:35:44;10.20;99.90
23597;DHT22;40226;50.874;4.394;2024-03-17T03:38:11;10.10;99.90
23597;DHT22;40226;50.874;4.394;2024-03-17T03:40:37;9.90;99.90
23597;DHT22;40226;50.874;4.394;2024-03-17T03:43:03;10.10;99.90
23597;DHT22;40226;50.874;4.394;2024-03-17T03:45:28;10.10;99.90
23597;DHT22;40226;50.874;4.394;2024-03-17T03:47:54;10.10;99.90
23597;DHT22;40226;50.874;4.394;2024-03-17T03:50:21;10.10;99.90
23597;DHT22;40226;50.874;4.394;2024-03-17T03:52:47;9.90;99.90
23597;DHT22;40226;50.874;4.394;2024-03-17T03:55:14;9.90;99.90
23597;DHT22;40226;50.874;4.394;2024-03-17T03:57:43;9.80;99.90
23597;DHT22;40226;50.874;4.394;2024-03-17T04:00:17;9.90;99.90
23597;DHT22;40226;50.874;4.394;2024-03-17T04:02:50;9.70;99.90
23597;DHT22;40226;50.874;4.394;2024-03-17T04:05:16;9.70;99.90
23597;DHT22;40226;50.874;4.394;2024-03-17T04:07:42;9.70;99.90
23597;DHT22;40226;50.874;4.394;2024-03-17T04:10:09;9.60;99.90
23597;DHT22;40226;50.874;4.394;2024-03-17T04:12:35;9.60;99.90
23597;DHT22;40226;50.874;4.394;2024-03-17T04:15:01;9.50;99.90
23597;DHT22;40226;50.874;4.394;2024-03-17T04:17:28;9.40;99.90
23597;DHT22;40226;50.874;4.394;2024-03-17T04:19:56;9.50;99.90
23597;DHT22;40226;50.874;4.394;2024-03-17T04:22:22;9.40;99.90
23597;DHT22;40226;50.874;4.394;2024-03-17T04:24:49;9.30;99.90
23597;DHT22;40226;50.874;4.394;2024-03-17T04:27:24;9.50;99.90
23597;DHT22;40226;50.874;4.394;2024-03-17T04:29:52;9.40;99.90
23597;DHT22;40226;50.874;4.394;2024-03-17T04:32:17;9.40;99.90
23597;DHT22;40226;50.874;4.394;2024-03-17T04:34:43;9.60;99.90
23597;DHT22;40226;50.874;4.394;2024-03-17T04:37:12;9.70;99.90
23597;DHT22;40226;50.874;4.394;2024-03-17T04:39:41;9.80;99.90
23597;DHT22;40226;50.874;4.394;2024-03-17T04:42:15;9.90;99.90
23597;DHT22;40226;50.874;4.394;2024-03-17T04:44:45;10.00;99.90
23597;DHT22;40226;50.874;4.394;2024-03-17T04:47:11;9.90;99.90
23597;DHT22;40226;50.874;4.394;2024-03-17T04:49:42;9.90;99.90
23597;DHT22;40226;50.874;4.394;2024-03-17T04:52:11;9.80;99.90
23597;DHT22;40226;50.874;4.394;2024-03-17T04:54:41;9.80;99.90
23597;DHT22;40226;50.874;4.394;2024-03-17T04:57:08;9.80;99.90
23597;DHT22;40226;50.874;4.394;2024-03-17T04:59:35;9.80;99.90
23597;DHT22;40226;50.874;4.394;2024-03-17T05:02:00;9.90;99.90
23597;DHT22;40226;50.874;4.394;2024-03-17T05:04:27;9.80;99.90
23597;DHT22;40226;50.874;4.394;2024-03-17T05:06:53;9.80;99.90
23597;DHT22;40226;50.874;4.394;2024-03-17T05:09:19;9.70;99.90
23597;DHT22;40226;50.874;4.394;2024-03-17T05:11:46;9.70;99.90
23597;DHT22;40226;50.874;4.394;2024-03-17T05:14:12;9.90;99.90
23597;DHT22;40226;50.874;4.394;2024-03-17T05:16:38;9.80;99.90
23597;DHT22;40226;50.874;4.394;2024-03-17T05:19:04;9.60;99.90
23597;DHT22;40226;50.874;4.394;2024-03-17T05:21:30;9.50;99.90
23597;DHT22;40226;50.874;4.394;2024-03-17T05:23:57;9.40;99.90
23597;DHT22;40226;50.874;4.394;2024-03-17T05:26:25;9.40;99.90
23597;DHT22;40226;50.874;4.394;2024-03-17T05:28:51;9.40;99.90
23597;DHT22;40226;50.874;4.394;2024-03-17T05:31:17;9.30;99.90
23597;DHT22;40226;50.874;4.394;2024-03-17T05:33:44;9.20;99.90
23597;DHT22;40226;50.874;4.394;2024-03-17T05:36:10;9.40;99.90
23597;DHT22;40226;50.874;4.394;2024-03-17T05:38:36;9.40;99.90
23597;DHT22;40226;50.874;4.394;2024-03-17T05:41:03;9.50;99.90
23597;DHT22;40226;50.874;4.394;2024-03-17T05:43:34;9.60;99.90
23597;DHT22;40226;50.874;4.394;2024-03-17T05:46:05;9.80;99.90
23597;DHT22;40226;50.874;4.394;2024-03-17T05:48:34;9.90;99.90
23597;DHT22;40226;50.874;4.394;2024-03-17T05:51:03;9.90;99.90
23597;DHT22;40226;50.874;4.394;2024-03-17T05:53:29;9.80;99.90
23597;DHT22;40226;50.874;4.394;2024-03-17T05:55:54;9.80;99.90
23597;DHT22;40226;50.874;4.394;2024-03-17T05:58:20;9.80;99.90
23597;DHT22;40226;50.874;4.394;2024-03-17T06:00:46;9.70;99.90
23597;DHT22;40226;50.874;4.394;2024-03-17T06:03:12;9.90;99.90
23597;DHT22;40226;50.874;4.394;2024-03-17T06:05:39;9.90;99.90
23597;DHT22;40226;50.874;4.394;2024-03-17T06:08:06;9.90;99.90
23597;DHT22;40226;50.874;4.394;2024-03-17T06:10:35;9.90;99.90
23597;DHT22;40226;50.874;4.394;2024-03-17T06:13:01;9.90;99.90
23597;DHT22;40226;50.874;4.394;2024-03-17T06:15:27;9.90;99.90
23597;DHT22;40226;50.874;4.394;2024-03-17T06:17:53;10.00;99.90
23597;DHT22;40226;50.874;4.394;2024-03-17T06:20:24;10.10;99.90
23597;DHT22;40226;50.874;4.394;2024-03-17T06:22:55;10.20;99.90
23597;DHT22;40226;50.874;4.394;2024-03-17T06:25:21;10.10;99.90
23597;DHT22;40226;50.874;4.394;2024-03-17T06:27:51;10.10;99.90
23597;DHT22;40226;50.874;4.394;2024-03-17T06:30:16;9.90;99.90
23597;DHT22;40226;50.874;4.394;2024-03-17T06:32:44;9.90;99.90
23597;DHT22;40226;50.874;4.394;2024-03-17T06:35:11;9.80;99.90
23597;DHT22;40226;50.874;4.394;2024-03-17T06:37:37;9.90;99.90
23597;DHT22;40226;50.874;4.394;2024-03-17T06:40:04;9.80;99.90
23597;DHT22;40226;50.874;4.394;2024-03-17T06:42:31;9.80;99.90
23597;DHT22;40226;50.874;4.394;2024-03-17T06:44:56;9.80;99.90
23597;DHT22;40226;50.874;4.394;2024-03-17T06:47:22;10.00;99.90
23597;DHT22;40226;50.874;4.394;2024-03-17T06:49:48;10.10;99.90
23597;DHT22;40226;50.874;4.394;2024-03-17T06:52:14;10.10;99.90
23597;DHT22;40226;50.874;4.394;2024-03-17T06:54:39;10.10;99.90
23597;DHT22;40226;50.874;4.394;2024-03-17T06:57:05;10.20;99.90
23597;DHT22;40226;50.874;4.394;2024-03-17T06:59:34;10.20;99.90
23597;DHT22;40226;50.874;4.394;2024-03-17T07:02:03;10.20;99.90
23597;DHT22;40226;50.874;4.394;2024-03-17T07:04:28;10.10;99.90
23597;DHT22;40226;50.874;4.394;2024-03-17T07:06:54;10.10;99.90
23597;DHT22;40226;50.874;4.394;2024-03-17T07:09:20;10.10;99.90
23597;DHT22;40226;50.874;4.394;2024-03-17T07:11:46;10.20;99.90
23597;DHT22;40226;50.874;4.394;2024-03-17T07:14:12;10.20;99.90
23597;DHT22;40226;50.874;4.394;2024-03-17T07:16:37;10.40;99.90
23597;DHT22;40226;50.874;4.394;2024-03-17T07:19:03;10.40;99.90
23597;DHT22;40226;50.874;4.394;2024-03-17T07:21:30;10.30;99.90
23597;DHT22;40226;50.874;4.394;2024-03-17T07:23:57;10.40;99.90
23597;DHT22;40226;50.874;4.394;2024-03-17T07:26:25;10.40;99.90
23597;DHT22;40226;50.874;4.394;2024-03-17T07:28:50;10.40;99.90
23597;DHT22;40226;50.874;4.394;2024-03-17T07:31:16;10.50;99.90
23597;DHT22;40226;50.874;4.394;2024-03-17T07:33:41;10.60;99.90
23597;DHT22;40226;50.874;4.394;2024-03-17T07:36:10;10.70;99.90
23597;DHT22;40226;50.874;4.394;2024-03-17T07:38:36;10.70;99.90
23597;DHT22;40226;50.874;4.394;2024-03-17T07:43:30;10.90;99.90
23597;DHT22;40226;50.874;4.394;2024-03-17T07:46:01;10.90;99.90
23597;DHT22;40226;50.874;4.394;2024-03-17T07:48:27;10.80;99.90
23597;DHT22;40226;50.874;4.394;2024-03-17T07:50:58;10.90;99.90
23597;DHT22;40226;50.874;4.394;2024-03-17T07:53:23;11.00;99.90
23597;DHT22;40226;50.874;4.394;2024-03-17T07:56:03;11.20;99.90
23597;DHT22;40226;50.874;4.394;2024-03-17T07:58:30;11.30;99.90
23597;DHT22;40226;50.874;4.394;2024-03-17T08:03:34;11.50;99.90
23597;DHT22;40226;50.874;4.394;2024-03-17T08:06:01;11.60;99.90
23597;DHT22;40226;50.874;4.394;2024-03-17T08:08:28;11.70;99.90
23597;DHT22;40226;50.874;4.394;2024-03-17T08:10:56;11.80;99.90
23597;DHT22;40226;50.874;4.394;2024-03-17T08:13:22;12.00;99.90
23597;DHT22;40226;50.874;4.394;2024-03-17T08:15:59;12.10;99.90
23597;DHT22;40226;50.874;4.394;2024-03-17T08:18:28;12.20;99.90
23597;DHT22;40226;50.874;4.394;2024-03-17T08:20:54;12.50;99.90
23597;DHT22;40226;50.874;4.394;2024-03-17T08:23:21;12.70;99.90
23597;DHT22;40226;50.874;4.394;2024-03-17T08:25:54;12.60;99.90
23597;DHT22;40226;50.874;4.394;2024-03-17T08:28:21;12.40;99.90
23597;DHT22;40226;50.874;4.394;2024-03-17T08:30:54;12.40;99.90
23597;DHT22;40226;50.874;4.394;2024-03-17T08:33:26;12.50;99.90
23597;DHT22;40226;50.874;4.394;2024-03-17T08:35:57;12.50;99.90
23597;DHT22;40226;50.874;4.394;2024-03-17T08:38:23;12.60;99.90
23597;DHT22;40226;50.874;4.394;2024-03-17T08:40:50;12.60;99.90
23597;DHT22;40226;50.874;4.394;2024-03-17T08:43:17;12.40;99.90
23597;DHT22;40226;50.874;4.394;2024-03-17T08:45:43;12.20;99.90
23597;DHT22;40226;50.874;4.394;2024-03-17T08:48:08;12.10;99.90
23597;DHT22;40226;50.874;4.394;2024-03-17T08:50:36;12.30;99.90
23597;DHT22;40226;50.874;4.394;2024-03-17T08:53:08;12.20;99.90
23597;DHT22;40226;50.874;4.394;2024-03-17T08:55:34;12.20;99.90
23597;DHT22;40226;50.874;4.394;2024-03-17T08:57:59;12.10;99.90
23597;DHT22;40226;50.874;4.394;2024-03-17T09:00:25;12.10;99.90
23597;DHT22;40226;50.874;4.394;2024-03-17T09:02:51;12.10;99.90
23597;DHT22;40226;50.874;4.394;2024-03-17T09:05:16;12.20;99.90
23597;DHT22;40226;50.874;4.394;2024-03-17T09:07:42;12.40;99.90
23597;DHT22;40226;50.874;4.394;2024-03-17T09:10:10;12.50;99.90
23597;DHT22;40226;50.874;4.394;2024-03-17T09:12:38;12.60;99.90
23597;DHT22;40226;50.874;4.394;2024-03-17T09:15:05;12.50;99.90
23597;DHT22;40226;50.874;4.394;2024-03-17T09:17:31;12.40;99.90
23597;DHT22;40226;50.874;4.394;2024-03-17T09:19:57;12.50;99.90
23597;DHT22;40226;50.874;4.394;2024-03-17T09:22:22;12.50;99.90
23597;DHT22;40226;50.874;4.394;2024-03-17T09:24:48;12.60;99.90
23597;DHT22;40226;50.874;4.394;2024-03-17T09:27:20;12.70;99.90
23597;DHT22;40226;50.874;4.394;2024-03-17T09:29:47;12.60;99.90
23597;DHT22;40226;50.874;4.394;2024-03-17T09:32:14;12.40;99.90
23597;DHT22;40226;50.874;4.394;2024-03-17T09:34:47;12.40;99.90
23597;DHT22;40226;50.874;4.394;2024-03-17T09:37:14;12.30;99.90
23597;DHT22;40226;50.874;4.394;2024-03-17T09:39:41;12.30;99.90
23597;DHT22;40226;50.874;4.394;2024-03-17T09:42:19;12.40;99.90
23597;DHT22;40226;50.874;4.394;2024-03-17T09:44:52;12.40;99.90
23597;DHT22;40226;50.874;4.394;2024-03-17T09:47:19;12.50;99.90
23597;DHT22;40226;50.874;4.394;2024-03-17T09:49:50;12.40;99.90
23597;DHT22;40226;50.874;4.394;2024-03-17T09:52:23;12.30;99.90
23597;DHT22;40226;50.874;4.394;2024-03-17T09:54:58;12.30;99.90
23597;DHT22;40226;50.874;4.394;2024-03-17T09:57:25;12.40;99.90
23597;DHT22;40226;50.874;4.394;2024-03-17T09:59:54;12.50;99.90
23597;DHT22;40226;50.874;4.394;2024-03-17T10:02:21;12.50;99.90
23597;DHT22;40226;50.874;4.394;2024-03-17T10:04:50;12.50;99.90
23597;DHT22;40226;50.874;4.394;2024-03-17T10:07:15;12.60;99.90
23597;DHT22;40226;50.874;4.394;2024-03-17T10:09:44;12.60;99.90
23597;DHT22;40226;50.874;4.394;2024-03-17T10:12:30;12.60;99.90
23597;DHT22;40226;50.874;4.394;2024-03-17T10:14:59;12.60;99.90
23597;DHT22;40226;50.874;4.394;2024-03-17T10:17:32;12.70;99.90
23597;DHT22;40226;50.874;4.394;2024-03-17T10:23:05;12.90;99.90
23597;DHT22;40226;50.874;4.394;2024-03-17T10:25:33;12.90;99.90
23597;DHT22;40226;50.874;4.394;2024-03-17T10:28:01;13.00;99.90
23597;DHT22;40226;50.874;4.394;2024-03-17T10:30:29;13.10;99.90
23597;DHT22;40226;50.874;4.394;2024-03-17T10:33:00;13.20;99.90
23597;DHT22;40226;50.874;4.394;2024-03-17T10:35:28;13.20;99.90
23597;DHT22;40226;50.874;4.394;2024-03-17T10:38:02;13.20;99.90
23597;DHT22;40226;50.874;4.394;2024-03-17T10:40:33;13.20;99.90
23597;DHT22;40226;50.874;4.394;2024-03-17T10:43:01;13.20;99.90
23597;DHT22;40226;50.874;4.394;2024-03-17T10:45:28;13.30;99.90
23597;DHT22;40226;50.874;4.394;2024-03-17T10:48:02;13.20;99.90
23597;DHT22;40226;50.874;4.394;2024-03-17T10:50:36;13.30;99.90
23597;DHT22;40226;50.874;4.394;2024-03-17T10:53:04;13.20;99.90
23597;DHT22;40226;50.874;4.394;2024-03-17T10:55:46;13.30;99.90
23597;DHT22;40226;50.874;4.394;2024-03-17T10:58:23;13.20;99.90
23597;DHT22;40226;50.874;4.394;2024-03-17T11:00:52;13.40;99.90
23597;DHT22;40226;50.874;4.394;2024-03-17T11:03:19;13.50;99.90
23597;DHT22;40226;50.874;4.394;2024-03-17T11:05:48;13.70;99.90
23597;DHT22;40226;50.874;4.394;2024-03-17T11:08:17;13.90;99.90
23597;DHT22;40226;50.874;4.394;2024-03-17T11:10:50;13.90;99.90
23597;DHT22;40226;50.874;4.394;2024-03-17T11:13:30;14.00;99.90
23597;DHT22;40226;50.874;4.394;2024-03-17T11:15:57;14.40;99.90
23597;DHT22;40226;50.874;4.394;2024-03-17T11:23:36;15.40;99.90
23597;DHT22;40226;50.874;4.394;2024-03-17T11:26:04;15.70;99.90
23597;DHT22;40226;50.874;4.394;2024-03-17T11:31:44;15.70;99.90
23597;DHT22;40226;50.874;4.394;2024-03-17T11:34:36;15.70;99.90
23597;DHT22;40226;50.874;4.394;2024-03-17T11:37:05;15.70;99.90
23597;DHT22;40226;50.874;4.394;2024-03-17T11:39:50;16.10;99.90
23597;DHT22;40226;50.874;4.394;2024-03-17T11:42:18;16.10;99.90
23597;DHT22;40226;50.874;4.394;2024-03-17T11:45:03;15.70;99.90
23597;DHT22;40226;50.874;4.394;2024-03-17T11:47:36;15.80;99.90
23597;DHT22;40226;50.874;4.394;2024-03-17T11:50:04;15.80;99.90
23597;DHT22;40226;50.874;4.394;2024-03-17T11:52:30;16.40;99.90
23597;DHT22;40226;50.874;4.394;2024-03-17T11:54:56;16.60;99.90
23597;DHT22;40226;50.874;4.394;2024-03-17T11:57:26;16.70;99.90
23597;DHT22;40226;50.874;4.394;2024-03-17T11:59:53;16.80;99.90
23597;DHT22;40226;50.874;4.394;2024-03-17T12:02:25;16.20;99.90
23597;DHT22;40226;50.874;4.394;2024-03-17T12:04:58;15.80;99.90
23597;DHT22;40226;50.874;4.394;2024-03-17T12:07:24;15.70;99.90
23597;DHT22;40226;50.874;4.394;2024-03-17T12:09:51;15.90;99.90
23597;DHT22;40226;50.874;4.394;2024-03-17T12:12:20;15.80;99.90
23597;DHT22;40226;50.874;4.394;2024-03-17T12:14:46;16.40;99.90
23597;DHT22;40226;50.874;4.394;2024-03-17T12:17:15;17.50;99.90
23597;DHT22;40226;50.874;4.394;2024-03-17T12:19:44;18.30;99.90
23597;DHT22;40226;50.874;4.394;2024-03-17T12:22:18;18.00;99.90
23597;DHT22;40226;50.874;4.394;2024-03-17T12:24:52;17.80;99.90
23597;DHT22;40226;50.874;4.394;2024-03-17T12:27:22;17.80;99.90
23597;DHT22;40226;50.874;4.394;2024-03-17T12:29:52;18.40;99.90
23597;DHT22;40226;50.874;4.394;2024-03-17T12:32:19;18.80;99.90
23597;DHT22;40226;50.874;4.394;2024-03-17T12:34:50;18.60;99.90
23597;DHT22;40226;50.874;4.394;2024-03-17T12:37:27;18.90;99.90
23597;DHT22;40226;50.874;4.394;2024-03-17T12:39:59;18.90;99.90
23597;DHT22;40226;50.874;4.394;2024-03-17T12:42:26;18.40;99.90
23597;DHT22;40226;50.874;4.394;2024-03-17T12:47:22;18.10;99.90
23597;DHT22;40226;50.874;4.394;2024-03-17T12:52:38;18.50;99.90
23597;DHT22;40226;50.874;4.394;2024-03-17T12:55:05;18.00;99.90
23597;DHT22;40226;50.874;4.394;2024-03-17T12:58:06;17.50;99.90
23597;DHT22;40226;50.874;4.394;2024-03-17T13:00:58;17.20;99.90
23597;DHT22;40226;50.874;4.394;2024-03-17T13:03:35;17.20;99.90
23597;DHT22;40226;50.874;4.394;2024-03-17T13:06:02;16.90;99.90
23597;DHT22;40226;50.874;4.394;2024-03-17T13:08:32;16.80;99.90
23597;DHT22;40226;50.874;4.394;2024-03-17T13:10:59;16.90;99.90
23597;DHT22;40226;50.874;4.394;2024-03-17T13:13:25;16.60;99.90
23597;DHT22;40226;50.874;4.394;2024-03-17T13:15:50;16.20;99.90
23597;DHT22;40226;50.874;4.394;2024-03-17T13:18:20;16.00;99.90
23597;DHT22;40226;50.874;4.394;2024-03-17T13:20:47;16.00;99.90
23597;DHT22;40226;50.874;4.394;2024-03-17T13:23:18;16.00;99.90
23597;DHT22;40226;50.874;4.394;2024-03-17T13:25:43;15.90;99.90
23597;DHT22;40226;50.874;4.394;2024-03-17T13:28:11;15.90;99.90
23597;DHT22;40226;50.874;4.394;2024-03-17T13:30:39;15.90;99.90
23597;DHT22;40226;50.874;4.394;2024-03-17T13:33:06;15.90;99.90
23597;DHT22;40226;50.874;4.394;2024-03-17T13:35:37;15.80;99.90
23597;DHT22;40226;50.874;4.394;2024-03-17T13:38:09;15.70;99.90
23597;DHT22;40226;50.874;4.394;2024-03-17T13:40:37;15.70;99.90
23597;DHT22;40226;50.874;4.394;2024-03-17T13:43:04;15.80;99.90
23597;DHT22;40226;50.874;4.394;2024-03-17T13:45:38;16.20;99.90
23597;DHT22;40226;50.874;4.394;2024-03-17T13:48:07;16.30;99.90
23597;DHT22;40226;50.874;4.394;2024-03-17T13:50:36;16.20;99.90
23597;DHT22;40226;50.874;4.394;2024-03-17T13:53:03;16.00;99.90
23597;DHT22;40226;50.874;4.394;2024-03-17T13:55:29;15.80;99.90
23597;DHT22;40226;50.874;4.394;2024-03-17T13:57:56;15.60;99.90
23597;DHT22;40226;50.874;4.394;2024-03-17T14:00:24;15.70;99.90
23597;DHT22;40226;50.874;4.394;2024-03-17T14:02:51;16.10;99.90
23597;DHT22;40226;50.874;4.394;2024-03-17T14:05:23;16.00;99.90
23597;DHT22;40226;50.874;4.394;2024-03-17T14:07:49;15.80;99.90
23597;DHT22;40226;50.874;4.394;2024-03-17T14:10:17;15.80;99.90
23597;DHT22;40226;50.874;4.394;2024-03-17T14:12:43;15.80;99.90
23597;DHT22;40226;50.874;4.394;2024-03-17T14:15:13;15.60;99.90
23597;DHT22;40226;50.874;4.394;2024-03-17T14:17:40;15.70;99.90
23597;DHT22;40226;50.874;4.394;2024-03-17T14:20:07;15.60;99.90
23597;DHT22;40226;50.874;4.394;2024-03-17T14:22:37;15.30;99.90
23597;DHT22;40226;50.874;4.394;2024-03-17T14:25:04;15.30;99.90
23597;DHT22;40226;50.874;4.394;2024-03-17T14:27:31;15.20;99.90
23597;DHT22;40226;50.874;4.394;2024-03-17T14:29:56;15.30;99.90
23597;DHT22;40226;50.874;4.394;2024-03-17T14:32:22;15.30;99.90
23597;DHT22;40226;50.874;4.394;2024-03-17T14:34:47;15.30;99.90
23597;DHT22;40226;50.874;4.394;2024-03-17T14:37:19;15.30;99.90
23597;DHT22;40226;50.874;4.394;2024-03-17T14:39:44;15.10;99.90
23597;DHT22;40226;50.874;4.394;2024-03-17T14:42:10;15.00;99.90
23597;DHT22;40226;50.874;4.394;2024-03-17T14:44:36;14.80;99.90
23597;DHT22;40226;50.874;4.394;2024-03-17T14:47:02;14.80;99.90
23597;DHT22;40226;50.874;4.394;2024-03-17T14:49:32;14.80;99.90
23597;DHT22;40226;50.874;4.394;2024-03-17T14:51:58;14.90;99.90
23597;DHT22;40226;50.874;4.394;2024-03-17T14:54:24;15.00;99.90
23597;DHT22;40226;50.874;4.394;2024-03-17T14:56:51;15.10;99.90
23597;DHT22;40226;50.874;4.394;2024-03-17T14:59:17;15.30;99.90
23597;DHT22;40226;50.874;4.394;2024-03-17T15:01:45;15.30;99.90
23597;DHT22;40226;50.874;4.394;2024-03-17T15:04:11;15.20;99.90
23597;DHT22;40226;50.874;4.394;2024-03-17T15:06:36;15.00;99.90
23597;DHT22;40226;50.874;4.394;2024-03-17T15:09:05;15.10;99.90
23597;DHT22;40226;50.874;4.394;2024-03-17T15:11:31;15.20;99.90
23597;DHT22;40226;50.874;4.394;2024-03-17T15:13:56;15.10;99.90
23597;DHT22;40226;50.874;4.394;2024-03-17T15:16:25;15.00;99.90
23597;DHT22;40226;50.874;4.394;2024-03-17T15:18:51;14.90;99.90
23597;DHT22;40226;50.874;4.394;2024-03-17T15:21:19;14.80;99.90
23597;DHT22;40226;50.874;4.394;2024-03-17T15:23:49;14.70;99.90
23597;DHT22;40226;50.874;4.394;2024-03-17T15:26:14;14.80;99.90
23597;DHT22;40226;50.874;4.394;2024-03-17T15:28:43;14.80;99.90
23597;DHT22;40226;50.874;4.394;2024-03-17T15:31:09;14.90;99.90
23597;DHT22;40226;50.874;4.394;2024-03-17T15:33:36;14.90;99.90
23597;DHT22;40226;50.874;4.394;2024-03-17T15:36:04;14.90;99.90
23597;DHT22;40226;50.874;4.394;2024-03-17T15:38:36;14.80;99.90
23597;DHT22;40226;50.874;4.394;2024-03-17T15:41:06;14.80;99.90
23597;DHT22;40226;50.874;4.394;2024-03-17T15:43:35;14.90;99.90
23597;DHT22;40226;50.874;4.394;2024-03-17T15:46:07;15.20;99.90
23597;DHT22;40226;50.874;4.394;2024-03-17T15:48:33;15.10;99.90
23597;DHT22;40226;50.874;4.394;2024-03-17T15:51:04;15.00;99.90
23597;DHT22;40226;50.874;4.394;2024-03-17T15:53:32;14.90;99.90
23597;DHT22;40226;50.874;4.394;2024-03-17T15:55:59;14.80;99.90
23597;DHT22;40226;50.874;4.394;2024-03-17T15:58:27;14.80;99.90
23597;DHT22;40226;50.874;4.394;2024-03-17T16:00:58;14.70;99.90
23597;DHT22;40226;50.874;4.394;2024-03-17T16:03:30;14.80;99.90
23597;DHT22;40226;50.874;4.394;2024-03-17T16:05:59;14.60;99.90